sensor_id;sensor_type;location;lat;lon;timestamp;temperature;humidity
70366;DHT22;57787;48.216;12.396;2022-11-18T00:01:24;7.00;93.20
70366;DHT22;57787;48.216;12.396;2022-11-18T00:03:51;7.00;93.50
70366;DHT22;57787;48.216;12.396;2022-11-18T00:06:24;7.00;93.60
70366;DHT22;57787;48.216;12.396;2022-11-18T00:08:53;7.10;93.70
70366;DHT22;57787;48.216;12.396;2022-11-18T00:11:22;7.10;93.80
70366;DHT22;57787;48.216;12.396;2022-11-18T00:14:14;7.20;93.90
70366;DHT22;57787;48.216;12.396;2022-11-18T00:16:57;7.30;94.00
70366;DHT22;57787;48.216;12.396;2022-11-18T00:19:30;7.30;94.00
70366;DHT22;57787;48.216;12.396;2022-11-18T00:22:01;7.30;94.10
70366;DHT22;57787;48.216;12.396;2022-11-18T00:24:28;7.30;94.00
70366;DHT22;57787;48.216;12.396;2022-11-18T00:27:02;7.30;94.00
70366;DHT22;57787;48.216;12.396;2022-11-18T00:29:30;7.30;94.00
70366;DHT22;57787;48.216;12.396;2022-11-18T00:31:57;7.40;93.90
70366;DHT22;57787;48.216;12.396;2022-11-18T00:34:25;7.40;94.00
70366;DHT22;57787;48.216;12.396;2022-11-18T00:36:58;7.40;94.00
70366;DHT22;57787;48.216;12.396;2022-11-18T00:39:25;7.40;94.00
70366;DHT22;57787;48.216;12.396;2022-11-18T00:41:52;7.40;94.00
70366;DHT22;57787;48.216;12.396;2022-11-18T00:44:38;7.50;94.10
70366;DHT22;57787;48.216;12.396;2022-11-18T00:47:04;7.50;94.10
70366;DHT22;57787;48.216;12.396;2022-11-18T00:49:31;7.50;94.10
70366;DHT22;57787;48.216;12.396;2022-11-18T00:51:58;7.50;94.20
70366;DHT22;57787;48.216;12.396;2022-11-18T00:54:27;7.50;94.30
70366;DHT22;57787;48.216;12.396;2022-11-18T00:56:54;7.60;94.30
70366;DHT22;57787;48.216;12.396;2022-11-18T00:59:21;7.60;94.30
70366;DHT22;57787;48.216;12.396;2022-11-18T01:01:47;7.60;94.20
70366;DHT22;57787;48.216;12.396;2022-11-18T01:04:16;7.60;94.20
70366;DHT22;57787;48.216;12.396;2022-11-18T01:06:43;7.70;94.20
70366;DHT22;57787;48.216;12.396;2022-11-18T01:09:14;7.70;94.10
70366;DHT22;57787;48.216;12.396;2022-11-18T01:11:41;7.70;94.20
70366;DHT22;57787;48.216;12.396;2022-11-18T01:14:27;7.70;94.20
70366;DHT22;57787;48.216;12.396;2022-11-18T01:16:55;7.70;94.10
70366;DHT22;57787;48.216;12.396;2022-11-18T01:19:23;7.80;94.10
70366;DHT22;57787;48.216;12.396;2022-11-18T01:21:50;7.80;94.00
70366;DHT22;57787;48.216;12.396;2022-11-18T01:24:17;7.80;94.00
70366;DHT22;57787;48.216;12.396;2022-11-18T01:26:44;7.80;94.00
70366;DHT22;57787;48.216;12.396;2022-11-18T01:29:10;7.80;94.00
70366;DHT22;57787;48.216;12.396;2022-11-18T01:31:37;7.80;93.90
70366;DHT22;57787;48.216;12.396;2022-11-18T01:34:27;7.80;93.90
70366;DHT22;57787;48.216;12.396;2022-11-18T01:36:54;7.80;93.90
70366;DHT22;57787;48.216;12.396;2022-11-18T01:39:22;7.80;93.90
70366;DHT22;57787;48.216;12.396;2022-11-18T01:41:49;7.80;93.80
70366;DHT22;57787;48.216;12.396;2022-11-18T01:47:21;7.80;93.80
70366;DHT22;57787;48.216;12.396;2022-11-18T01:49:49;7.80;93.70
70366;DHT22;57787;48.216;12.396;2022-11-18T01:52:16;7.80;93.60
70366;DHT22;57787;48.216;12.396;2022-11-18T01:54:47;7.80;93.60
70366;DHT22;57787;48.216;12.396;2022-11-18T01:57:19;7.70;93.60
70366;DHT22;57787;48.216;12.396;2022-11-18T01:59:58;7.70;93.50
70366;DHT22;57787;48.216;12.396;2022-11-18T02:02:26;7.70;93.40
70366;DHT22;57787;48.216;12.396;2022-11-18T02:04:59;7.70;93.50
70366;DHT22;57787;48.216;12.396;2022-11-18T02:07:26;7.70;93.40
70366;DHT22;57787;48.216;12.396;2022-11-18T02:09:59;7.70;93.40
70366;DHT22;57787;48.216;12.396;2022-11-18T02:12:28;7.60;93.20
70366;DHT22;57787;48.216;12.396;2022-11-18T02:14:55;7.60;93.20
70366;DHT22;57787;48.216;12.396;2022-11-18T02:17:57;7.50;93.00
70366;DHT22;57787;48.216;12.396;2022-11-18T02:20:33;7.50;92.90
70366;DHT22;57787;48.216;12.396;2022-11-18T02:26:23;7.40;92.90
70366;DHT22;57787;48.216;12.396;2022-11-18T02:29:08;7.40;92.90
70366;DHT22;57787;48.216;12.396;2022-11-18T02:32:00;7.40;93.20
70366;DHT22;57787;48.216;12.396;2022-11-18T02:34:47;7.40;93.20
70366;DHT22;57787;48.216;12.396;2022-11-18T02:37:24;7.40;93.30
70366;DHT22;57787;48.216;12.396;2022-11-18T02:40:22;7.40;93.40
70366;DHT22;57787;48.216;12.396;2022-11-18T02:43:02;7.50;93.50
70366;DHT22;57787;48.216;12.396;2022-11-18T02:45:30;7.50;93.50
70366;DHT22;57787;48.216;12.396;2022-11-18T02:48:03;7.50;93.50
70366;DHT22;57787;48.216;12.396;2022-11-18T02:50:34;7.50;93.50
70366;DHT22;57787;48.216;12.396;2022-11-18T02:53:04;7.50;93.60
70366;DHT22;57787;48.216;12.396;2022-11-18T02:55:34;7.50;93.50
70366;DHT22;57787;48.216;12.396;2022-11-18T02:58:03;7.50;93.50
70366;DHT22;57787;48.216;12.396;2022-11-18T03:00:32;7.50;93.50
70366;DHT22;57787;48.216;12.396;2022-11-18T03:02:59;7.50;93.50
70366;DHT22;57787;48.216;12.396;2022-11-18T03:05:31;7.50;93.50
70366;DHT22;57787;48.216;12.396;2022-11-18T03:08:08;7.60;93.40
70366;DHT22;57787;48.216;12.396;2022-11-18T03:10:42;7.50;93.40
70366;DHT22;57787;48.216;12.396;2022-11-18T03:13:42;7.50;93.40
70366;DHT22;57787;48.216;12.396;2022-11-18T03:16:22;7.60;93.30
70366;DHT22;57787;48.216;12.396;2022-11-18T03:19:33;7.60;93.30
70366;DHT22;57787;48.216;12.396;2022-11-18T03:22:13;7.60;93.30
70366;DHT22;57787;48.216;12.396;2022-11-18T03:25:01;7.60;93.30
70366;DHT22;57787;48.216;12.396;2022-11-18T03:27:38;7.60;93.30
70366;DHT22;57787;48.216;12.396;2022-11-18T03:30:12;7.60;93.30
70366;DHT22;57787;48.216;12.396;2022-11-18T03:32:46;7.60;93.30
70366;DHT22;57787;48.216;12.396;2022-11-18T03:35:20;7.60;93.20
70366;DHT22;57787;48.216;12.396;2022-11-18T03:37:51;7.60;93.20
70366;DHT22;57787;48.216;12.396;2022-11-18T03:40:25;7.60;93.20
70366;DHT22;57787;48.216;12.396;2022-11-18T03:42:59;7.60;93.20
70366;DHT22;57787;48.216;12.396;2022-11-18T03:45:35;7.60;93.10
70366;DHT22;57787;48.216;12.396;2022-11-18T03:48:08;7.60;93.10
70366;DHT22;57787;48.216;12.396;2022-11-18T03:50:40;7.60;93.10
70366;DHT22;57787;48.216;12.396;2022-11-18T03:53:08;7.60;93.10
70366;DHT22;57787;48.216;12.396;2022-11-18T03:55:41;7.60;93.10
70366;DHT22;57787;48.216;12.396;2022-11-18T03:58:26;7.60;93.10
70366;DHT22;57787;48.216;12.396;2022-11-18T04:00:58;7.60;93.10
70366;DHT22;57787;48.216;12.396;2022-11-18T04:03:27;7.60;93.10
70366;DHT22;57787;48.216;12.396;2022-11-18T04:06:07;7.60;93.00
70366;DHT22;57787;48.216;12.396;2022-11-18T04:08:37;7.60;93.00
70366;DHT22;57787;48.216;12.396;2022-11-18T04:11:15;7.60;93.00
70366;DHT22;57787;48.216;12.396;2022-11-18T04:14:04;7.60;93.00
70366;DHT22;57787;48.216;12.396;2022-11-18T04:16:42;7.60;93.00
70366;DHT22;57787;48.216;12.396;2022-11-18T04:19:10;7.60;92.90
70366;DHT22;57787;48.216;12.396;2022-11-18T04:21:36;7.60;92.90
70366;DHT22;57787;48.216;12.396;2022-11-18T04:24:03;7.60;92.90
70366;DHT22;57787;48.216;12.396;2022-11-18T04:26:30;7.60;92.90
70366;DHT22;57787;48.216;12.396;2022-11-18T04:28:57;7.50;92.90
70366;DHT22;57787;48.216;12.396;2022-11-18T04:31:24;7.60;93.00
70366;DHT22;57787;48.216;12.396;2022-11-18T04:33:50;7.60;93.00
70366;DHT22;57787;48.216;12.396;2022-11-18T04:36:17;7.60;93.10
70366;DHT22;57787;48.216;12.396;2022-11-18T04:38:45;7.60;93.10
70366;DHT22;57787;48.216;12.396;2022-11-18T04:41:12;7.60;93.10
70366;DHT22;57787;48.216;12.396;2022-11-18T04:43:40;7.60;93.20
70366;DHT22;57787;48.216;12.396;2022-11-18T04:46:07;7.60;93.10
70366;DHT22;57787;48.216;12.396;2022-11-18T04:48:34;7.60;93.10
70366;DHT22;57787;48.216;12.396;2022-11-18T04:51:04;7.60;93.10
70366;DHT22;57787;48.216;12.396;2022-11-18T04:53:31;7.60;93.10
70366;DHT22;57787;48.216;12.396;2022-11-18T04:56:05;7.60;93.10
70366;DHT22;57787;48.216;12.396;2022-11-18T04:58:32;7.60;93.00
70366;DHT22;57787;48.216;12.396;2022-11-18T05:01:00;7.60;93.00
70366;DHT22;57787;48.216;12.396;2022-11-18T05:03:27;7.60;93.00
70366;DHT22;57787;48.216;12.396;2022-11-18T05:06:00;7.60;93.00
70366;DHT22;57787;48.216;12.396;2022-11-18T05:08:27;7.60;93.00
70366;DHT22;57787;48.216;12.396;2022-11-18T05:10:55;7.60;93.10
70366;DHT22;57787;48.216;12.396;2022-11-18T05:13:42;7.60;93.00
70366;DHT22;57787;48.216;12.396;2022-11-18T05:16:09;7.60;93.10
70366;DHT22;57787;48.216;12.396;2022-11-18T05:18:37;7.60;93.10
70366;DHT22;57787;48.216;12.396;2022-11-18T05:21:07;7.60;93.00
70366;DHT22;57787;48.216;12.396;2022-11-18T05:23:33;7.60;93.00
70366;DHT22;57787;48.216;12.396;2022-11-18T05:26:08;7.70;93.00
70366;DHT22;57787;48.216;12.396;2022-11-18T05:28:37;7.60;92.90
70366;DHT22;57787;48.216;12.396;2022-11-18T05:31:09;7.60;92.80
70366;DHT22;57787;48.216;12.396;2022-11-18T05:36:15;7.60;92.80
70366;DHT22;57787;48.216;12.396;2022-11-18T05:38:43;7.60;92.70
70366;DHT22;57787;48.216;12.396;2022-11-18T05:41:10;7.60;92.60
70366;DHT22;57787;48.216;12.396;2022-11-18T05:43:57;7.60;92.50
70366;DHT22;57787;48.216;12.396;2022-11-18T05:46:25;7.60;92.40
70366;DHT22;57787;48.216;12.396;2022-11-18T05:48:54;7.60;92.40
70366;DHT22;57787;48.216;12.396;2022-11-18T05:51:21;7.60;92.30
70366;DHT22;57787;48.216;12.396;2022-11-18T05:53:49;7.60;92.20
70366;DHT22;57787;48.216;12.396;2022-11-18T05:56:42;7.60;92.20
70366;DHT22;57787;48.216;12.396;2022-11-18T05:59:16;7.60;92.20
70366;DHT22;57787;48.216;12.396;2022-11-18T06:01:55;7.60;92.20
70366;DHT22;57787;48.216;12.396;2022-11-18T06:04:40;7.50;92.30
70366;DHT22;57787;48.216;12.396;2022-11-18T06:07:19;7.50;92.30
70366;DHT22;57787;48.216;12.396;2022-11-18T06:09:49;7.50;92.40
70366;DHT22;57787;48.216;12.396;2022-11-18T06:12:21;7.50;92.40
70366;DHT22;57787;48.216;12.396;2022-11-18T06:14:55;7.60;92.40
70366;DHT22;57787;48.216;12.396;2022-11-18T06:17:33;7.50;92.40
70366;DHT22;57787;48.216;12.396;2022-11-18T06:20:02;7.50;92.40
70366;DHT22;57787;48.216;12.396;2022-11-18T06:22:30;7.50;92.40
70366;DHT22;57787;48.216;12.396;2022-11-18T06:24:57;7.50;92.40
70366;DHT22;57787;48.216;12.396;2022-11-18T06:27:27;7.50;92.30
70366;DHT22;57787;48.216;12.396;2022-11-18T06:29:54;7.50;92.30
70366;DHT22;57787;48.216;12.396;2022-11-18T06:32:24;7.50;92.30
70366;DHT22;57787;48.216;12.396;2022-11-18T06:34:51;7.50;92.30
70366;DHT22;57787;48.216;12.396;2022-11-18T06:37:18;7.50;92.30
70366;DHT22;57787;48.216;12.396;2022-11-18T06:39:48;7.50;92.30
70366;DHT22;57787;48.216;12.396;2022-11-18T06:42:15;7.50;92.20
70366;DHT22;57787;48.216;12.396;2022-11-18T06:45:03;7.40;92.20
70366;DHT22;57787;48.216;12.396;2022-11-18T06:47:30;7.40;92.10
70366;DHT22;57787;48.216;12.396;2022-11-18T06:49:58;7.40;92.10
70366;DHT22;57787;48.216;12.396;2022-11-18T06:52:24;7.40;92.10
70366;DHT22;57787;48.216;12.396;2022-11-18T06:54:51;7.40;92.10
70366;DHT22;57787;48.216;12.396;2022-11-18T06:57:21;7.40;92.10
70366;DHT22;57787;48.216;12.396;2022-11-18T06:59:48;7.40;92.10
70366;DHT22;57787;48.216;12.396;2022-11-18T07:02:14;7.40;92.20
70366;DHT22;57787;48.216;12.396;2022-11-18T07:04:44;7.40;92.30
70366;DHT22;57787;48.216;12.396;2022-11-18T07:07:13;7.40;92.30
70366;DHT22;57787;48.216;12.396;2022-11-18T07:09:39;7.40;92.40
70366;DHT22;57787;48.216;12.396;2022-11-18T07:12:06;7.40;92.40
70366;DHT22;57787;48.216;12.396;2022-11-18T07:14:33;7.40;92.40
70366;DHT22;57787;48.216;12.396;2022-11-18T07:17:00;7.50;92.50
70366;DHT22;57787;48.216;12.396;2022-11-18T07:19:27;7.50;92.40
70366;DHT22;57787;48.216;12.396;2022-11-18T07:22:01;7.50;92.30
70366;DHT22;57787;48.216;12.396;2022-11-18T07:24:29;7.50;92.30
70366;DHT22;57787;48.216;12.396;2022-11-18T07:26:56;7.50;92.30
70366;DHT22;57787;48.216;12.396;2022-11-18T07:29:24;7.60;92.20
70366;DHT22;57787;48.216;12.396;2022-11-18T07:31:51;7.60;92.20
70366;DHT22;57787;48.216;12.396;2022-11-18T07:34:18;7.60;92.20
70366;DHT22;57787;48.216;12.396;2022-11-18T07:36:44;7.70;91.80
70366;DHT22;57787;48.216;12.396;2022-11-18T07:39:11;7.70;91.80
70366;DHT22;57787;48.216;12.396;2022-11-18T07:41:39;7.70;91.80
70366;DHT22;57787;48.216;12.396;2022-11-18T07:44:05;7.80;91.90
70366;DHT22;57787;48.216;12.396;2022-11-18T07:46:35;7.80;91.60
70366;DHT22;57787;48.216;12.396;2022-11-18T07:49:05;7.90;91.80
70366;DHT22;57787;48.216;12.396;2022-11-18T07:51:34;8.00;92.00
70366;DHT22;57787;48.216;12.396;2022-11-18T07:54:07;8.00;92.00
70366;DHT22;57787;48.216;12.396;2022-11-18T07:56:34;8.00;92.20
70366;DHT22;57787;48.216;12.396;2022-11-18T07:59:02;8.10;92.10
70366;DHT22;57787;48.216;12.396;2022-11-18T08:01:29;8.10;92.00
70366;DHT22;57787;48.216;12.396;2022-11-18T08:04:07;8.20;92.10
70366;DHT22;57787;48.216;12.396;2022-11-18T08:06:36;8.20;92.20
70366;DHT22;57787;48.216;12.396;2022-11-18T08:09:04;8.20;91.70
70366;DHT22;57787;48.216;12.396;2022-11-18T08:11:35;8.30;91.60
70366;DHT22;57787;48.216;12.396;2022-11-18T08:14:02;8.30;91.70
70366;DHT22;57787;48.216;12.396;2022-11-18T08:16:31;8.40;92.10
70366;DHT22;57787;48.216;12.396;2022-11-18T08:19:03;8.50;92.10
70366;DHT22;57787;48.216;12.396;2022-11-18T08:21:30;8.50;91.80
70366;DHT22;57787;48.216;12.396;2022-11-18T08:24:00;8.60;91.40
70366;DHT22;57787;48.216;12.396;2022-11-18T08:26:27;8.70;91.50
70366;DHT22;57787;48.216;12.396;2022-11-18T08:28:54;8.80;91.50
70366;DHT22;57787;48.216;12.396;2022-11-18T08:31:26;8.80;91.40
70366;DHT22;57787;48.216;12.396;2022-11-18T08:34:01;8.90;91.10
70366;DHT22;57787;48.216;12.396;2022-11-18T08:36:31;8.90;90.30
70366;DHT22;57787;48.216;12.396;2022-11-18T08:39:01;9.00;90.50
70366;DHT22;57787;48.216;12.396;2022-11-18T08:41:35;9.00;90.00
70366;DHT22;57787;48.216;12.396;2022-11-18T08:44:05;9.10;90.10
70366;DHT22;57787;48.216;12.396;2022-11-18T08:46:33;9.10;89.60
70366;DHT22;57787;48.216;12.396;2022-11-18T08:49:00;9.20;89.70
70366;DHT22;57787;48.216;12.396;2022-11-18T08:51:27;9.20;89.20
70366;DHT22;57787;48.216;12.396;2022-11-18T08:53:56;9.30;88.90
70366;DHT22;57787;48.216;12.396;2022-11-18T08:56:26;9.30;87.60
70366;DHT22;57787;48.216;12.396;2022-11-18T08:58:55;9.30;87.70
70366;DHT22;57787;48.216;12.396;2022-11-18T09:01:25;9.20;87.20
70366;DHT22;57787;48.216;12.396;2022-11-18T09:03:52;9.20;87.90
70366;DHT22;57787;48.216;12.396;2022-11-18T09:06:21;9.20;87.30
70366;DHT22;57787;48.216;12.396;2022-11-18T09:08:50;9.20;88.00
70366;DHT22;57787;48.216;12.396;2022-11-18T09:11:23;9.10;87.00
70366;DHT22;57787;48.216;12.396;2022-11-18T09:13:55;9.20;87.50
70366;DHT22;57787;48.216;12.396;2022-11-18T09:16:43;9.20;87.80
70366;DHT22;57787;48.216;12.396;2022-11-18T09:19:10;9.30;87.30
70366;DHT22;57787;48.216;12.396;2022-11-18T09:21:57;9.40;87.40
70366;DHT22;57787;48.216;12.396;2022-11-18T09:24:24;9.40;85.90
70366;DHT22;57787;48.216;12.396;2022-11-18T09:26:51;9.50;86.30
70366;DHT22;57787;48.216;12.396;2022-11-18T09:29:19;9.50;84.00
70366;DHT22;57787;48.216;12.396;2022-11-18T09:31:52;9.50;84.90
70366;DHT22;57787;48.216;12.396;2022-11-18T09:34:19;9.50;85.70
70366;DHT22;57787;48.216;12.396;2022-11-18T09:39:23;9.50;84.80
70366;DHT22;57787;48.216;12.396;2022-11-18T09:42:30;9.40;84.00
70366;DHT22;57787;48.216;12.396;2022-11-18T09:45:27;9.40;84.60
70366;DHT22;57787;48.216;12.396;2022-11-18T09:48:15;9.40;84.80
70366;DHT22;57787;48.216;12.396;2022-11-18T09:50:44;9.30;84.30
70366;DHT22;57787;48.216;12.396;2022-11-18T09:53:21;9.30;85.00
70366;DHT22;57787;48.216;12.396;2022-11-18T09:55:50;9.30;84.40
70366;DHT22;57787;48.216;12.396;2022-11-18T10:00:54;9.30;84.70
70366;DHT22;57787;48.216;12.396;2022-11-18T10:03:32;9.30;84.00
70366;DHT22;57787;48.216;12.396;2022-11-18T10:12:00;9.30;85.20
70366;DHT22;57787;48.216;12.396;2022-11-18T10:17:30;9.50;85.90
70366;DHT22;57787;48.216;12.396;2022-11-18T10:22:55;9.70;84.60
70366;DHT22;57787;48.216;12.396;2022-11-18T10:25:30;9.70;84.50
70366;DHT22;57787;48.216;12.396;2022-11-18T10:28:23;9.70;84.40
70366;DHT22;57787;48.216;12.396;2022-11-18T10:30:51;9.70;83.90
70366;DHT22;57787;48.216;12.396;2022-11-18T10:33:24;9.70;83.80
70366;DHT22;57787;48.216;12.396;2022-11-18T10:36:24;9.80;83.70
70366;DHT22;57787;48.216;12.396;2022-11-18T10:39:12;9.80;83.40
70366;DHT22;57787;48.216;12.396;2022-11-18T10:41:51;9.80;84.10
70366;DHT22;57787;48.216;12.396;2022-11-18T10:44:39;9.90;84.00
70366;DHT22;57787;48.216;12.396;2022-11-18T10:47:30;10.00;84.30
70366;DHT22;57787;48.216;12.396;2022-11-18T10:50:01;9.90;82.50
70366;DHT22;57787;48.216;12.396;2022-11-18T10:52:51;10.00;82.90
70366;DHT22;57787;48.216;12.396;2022-11-18T10:55:20;10.00;83.10
70366;DHT22;57787;48.216;12.396;2022-11-18T10:57:49;10.00;82.80
70366;DHT22;57787;48.216;12.396;2022-11-18T11:00:45;10.00;82.50
70366;DHT22;57787;48.216;12.396;2022-11-18T11:09:02;10.20;81.20
70366;DHT22;57787;48.216;12.396;2022-11-18T11:14:26;10.40;81.70
70366;DHT22;57787;48.216;12.396;2022-11-18T11:17:34;10.40;81.80
70366;DHT22;57787;48.216;12.396;2022-11-18T11:22:36;10.50;80.70
70366;DHT22;57787;48.216;12.396;2022-11-18T11:25:10;10.60;82.00
70366;DHT22;57787;48.216;12.396;2022-11-18T11:34:19;10.50;81.40
70366;DHT22;57787;48.216;12.396;2022-11-18T11:37:13;10.50;81.60
70366;DHT22;57787;48.216;12.396;2022-11-18T11:45:48;10.30;82.60
70366;DHT22;57787;48.216;12.396;2022-11-18T11:50:58;10.30;81.30
70366;DHT22;57787;48.216;12.396;2022-11-18T11:56:31;10.30;83.10
70366;DHT22;57787;48.216;12.396;2022-11-18T12:07:55;10.00;84.20
70366;DHT22;57787;48.216;12.396;2022-11-18T12:13:52;10.00;83.40
70366;DHT22;57787;48.216;12.396;2022-11-18T12:19:42;9.90;83.60
70366;DHT22;57787;48.216;12.396;2022-11-18T12:22:09;9.80;83.30
70366;DHT22;57787;48.216;12.396;2022-11-18T12:24:41;9.80;83.00
70366;DHT22;57787;48.216;12.396;2022-11-18T12:27:12;9.80;84.00
70366;DHT22;57787;48.216;12.396;2022-11-18T12:29:57;9.70;84.80
70366;DHT22;57787;48.216;12.396;2022-11-18T12:37:57;9.60;84.00
70366;DHT22;57787;48.216;12.396;2022-11-18T12:40:42;9.70;84.00
70366;DHT22;57787;48.216;12.396;2022-11-18T12:51:54;9.90;83.60
70366;DHT22;57787;48.216;12.396;2022-11-18T12:54:35;9.80;83.20
70366;DHT22;57787;48.216;12.396;2022-11-18T12:59:43;9.70;84.10
70366;DHT22;57787;48.216;12.396;2022-11-18T13:04:40;9.80;83.10
70366;DHT22;57787;48.216;12.396;2022-11-18T13:07:19;9.80;82.90
70366;DHT22;57787;48.216;12.396;2022-11-18T13:10:22;9.70;83.30
70366;DHT22;57787;48.216;12.396;2022-11-18T13:12:50;9.70;83.60
70366;DHT22;57787;48.216;12.396;2022-11-18T13:15:25;9.70;82.90
70366;DHT22;57787;48.216;12.396;2022-11-18T13:18:21;9.60;82.90
70366;DHT22;57787;48.216;12.396;2022-11-18T13:20:56;9.60;83.30
70366;DHT22;57787;48.216;12.396;2022-11-18T13:26:20;9.60;83.00
70366;DHT22;57787;48.216;12.396;2022-11-18T13:34:51;9.60;83.70
70366;DHT22;57787;48.216;12.396;2022-11-18T13:39:50;9.40;82.60
70366;DHT22;57787;48.216;12.396;2022-11-18T13:42:28;9.40;83.90
70366;DHT22;57787;48.216;12.396;2022-11-18T13:44:58;9.40;84.20
70366;DHT22;57787;48.216;12.396;2022-11-18T14:01:24;8.80;84.10
70366;DHT22;57787;48.216;12.396;2022-11-18T14:06:28;8.70;83.70
70366;DHT22;57787;48.216;12.396;2022-11-18T14:09:27;8.60;83.10
70366;DHT22;57787;48.216;12.396;2022-11-18T14:14:40;8.30;84.10
70366;DHT22;57787;48.216;12.396;2022-11-18T14:19:54;8.20;84.80
70366;DHT22;57787;48.216;12.396;2022-11-18T14:22:26;8.20;85.40
70366;DHT22;57787;48.216;12.396;2022-11-18T14:25:02;8.20;85.80
70366;DHT22;57787;48.216;12.396;2022-11-18T14:27:43;8.10;86.10
70366;DHT22;57787;48.216;12.396;2022-11-18T14:35:39;7.90;86.70
70366;DHT22;57787;48.216;12.396;2022-11-18T14:41:19;7.90;87.10
70366;DHT22;57787;48.216;12.396;2022-11-18T14:44:10;7.80;86.80
70366;DHT22;57787;48.216;12.396;2022-11-18T14:46:41;7.80;87.00
70366;DHT22;57787;48.216;12.396;2022-11-18T14:49:15;7.80;87.00
70366;DHT22;57787;48.216;12.396;2022-11-18T14:51:44;7.70;87.00
70366;DHT22;57787;48.216;12.396;2022-11-18T14:54:15;7.70;87.20
70366;DHT22;57787;48.216;12.396;2022-11-18T14:56:53;7.70;87.20
70366;DHT22;57787;48.216;12.396;2022-11-18T14:59:21;7.70;87.30
70366;DHT22;57787;48.216;12.396;2022-11-18T15:01:49;7.70;87.10
70366;DHT22;57787;48.216;12.396;2022-11-18T15:04:16;7.70;87.30
70366;DHT22;57787;48.216;12.396;2022-11-18T15:06:45;7.60;87.20
70366;DHT22;57787;48.216;12.396;2022-11-18T15:09:13;7.60;87.50
70366;DHT22;57787;48.216;12.396;2022-11-18T15:11:41;7.60;87.70
70366;DHT22;57787;48.216;12.396;2022-11-18T15:14:08;7.60;87.60
70366;DHT22;57787;48.216;12.396;2022-11-18T15:16:37;7.60;87.50
70366;DHT22;57787;48.216;12.396;2022-11-18T15:19:08;7.50;87.80
70366;DHT22;57787;48.216;12.396;2022-11-18T15:21:37;7.50;88.00
70366;DHT22;57787;48.216;12.396;2022-11-18T15:24:04;7.50;87.90
70366;DHT22;57787;48.216;12.396;2022-11-18T15:26:51;7.40;88.10
70366;DHT22;57787;48.216;12.396;2022-11-18T15:29:20;7.40;88.20
70366;DHT22;57787;48.216;12.396;2022-11-18T15:31:47;7.40;88.30
70366;DHT22;57787;48.216;12.396;2022-11-18T15:34:15;7.40;88.40
70366;DHT22;57787;48.216;12.396;2022-11-18T15:36:44;7.40;88.40
70366;DHT22;57787;48.216;12.396;2022-11-18T15:39:11;7.40;88.60
70366;DHT22;57787;48.216;12.396;2022-11-18T15:41:39;7.30;88.70
70366;DHT22;57787;48.216;12.396;2022-11-18T15:44:08;7.40;89.00
70366;DHT22;57787;48.216;12.396;2022-11-18T15:46:44;7.40;88.90
70366;DHT22;57787;48.216;12.396;2022-11-18T15:49:14;7.40;89.10
70366;DHT22;57787;48.216;12.396;2022-11-18T15:51:43;7.40;89.10
70366;DHT22;57787;48.216;12.396;2022-11-18T15:54:10;7.40;89.00
70366;DHT22;57787;48.216;12.396;2022-11-18T15:56:39;7.30;89.10
70366;DHT22;57787;48.216;12.396;2022-11-18T15:59:16;7.30;89.10
70366;DHT22;57787;48.216;12.396;2022-11-18T16:01:46;7.40;89.30
70366;DHT22;57787;48.216;12.396;2022-11-18T16:04:21;7.30;89.30
70366;DHT22;57787;48.216;12.396;2022-11-18T16:06:48;7.30;89.30
70366;DHT22;57787;48.216;12.396;2022-11-18T16:09:15;7.30;89.40
70366;DHT22;57787;48.216;12.396;2022-11-18T16:11:43;7.30;89.50
70366;DHT22;57787;48.216;12.396;2022-11-18T16:14:35;7.30;89.60
70366;DHT22;57787;48.216;12.396;2022-11-18T16:17:04;7.30;89.60
70366;DHT22;57787;48.216;12.396;2022-11-18T16:19:31;7.40;89.70
70366;DHT22;57787;48.216;12.396;2022-11-18T16:21:59;7.40;89.70
70366;DHT22;57787;48.216;12.396;2022-11-18T16:24:28;7.40;89.80
70366;DHT22;57787;48.216;12.396;2022-11-18T16:26:55;7.40;89.70
70366;DHT22;57787;48.216;12.396;2022-11-18T16:29:23;7.30;89.80
70366;DHT22;57787;48.216;12.396;2022-11-18T16:31:51;7.30;90.00
70366;DHT22;57787;48.216;12.396;2022-11-18T16:34:26;7.30;90.00
70366;DHT22;57787;48.216;12.396;2022-11-18T16:36:55;7.40;90.10
70366;DHT22;57787;48.216;12.396;2022-11-18T16:39:24;7.30;90.20
70366;DHT22;57787;48.216;12.396;2022-11-18T16:41:56;7.40;90.30
70366;DHT22;57787;48.216;12.396;2022-11-18T16:44:32;7.40;90.30
70366;DHT22;57787;48.216;12.396;2022-11-18T16:47:03;7.40;90.30
70366;DHT22;57787;48.216;12.396;2022-11-18T16:49:39;7.40;90.40
70366;DHT22;57787;48.216;12.396;2022-11-18T16:52:06;7.40;90.40
70366;DHT22;57787;48.216;12.396;2022-11-18T16:54:34;7.40;90.50
70366;DHT22;57787;48.216;12.396;2022-11-18T16:57:10;7.40;90.60
70366;DHT22;57787;48.216;12.396;2022-11-18T16:59:38;7.40;90.60
70366;DHT22;57787;48.216;12.396;2022-11-18T17:02:09;7.40;90.60
70366;DHT22;57787;48.216;12.396;2022-11-18T17:04:36;7.40;90.60
70366;DHT22;57787;48.216;12.396;2022-11-18T17:07:04;7.40;90.50
70366;DHT22;57787;48.216;12.396;2022-11-18T17:09:31;7.40;90.50
70366;DHT22;57787;48.216;12.396;2022-11-18T17:11:58;7.40;90.50
70366;DHT22;57787;48.216;12.396;2022-11-18T17:14:25;7.40;90.60
70366;DHT22;57787;48.216;12.396;2022-11-18T17:16:52;7.40;90.70
70366;DHT22;57787;48.216;12.396;2022-11-18T17:19:20;7.40;90.60
70366;DHT22;57787;48.216;12.396;2022-11-18T17:21:49;7.40;90.50
70366;DHT22;57787;48.216;12.396;2022-11-18T17:24:21;7.40;90.60
70366;DHT22;57787;48.216;12.396;2022-11-18T17:26:54;7.50;90.70
70366;DHT22;57787;48.216;12.396;2022-11-18T17:29:23;7.40;90.70
70366;DHT22;57787;48.216;12.396;2022-11-18T17:31:49;7.40;90.70
70366;DHT22;57787;48.216;12.396;2022-11-18T17:34:16;7.40;90.80
70366;DHT22;57787;48.216;12.396;2022-11-18T17:36:45;7.40;90.80
70366;DHT22;57787;48.216;12.396;2022-11-18T17:39:12;7.40;90.90
70366;DHT22;57787;48.216;12.396;2022-11-18T17:41:39;7.40;91.00
70366;DHT22;57787;48.216;12.396;2022-11-18T17:44:28;7.40;90.90
70366;DHT22;57787;48.216;12.396;2022-11-18T17:47:02;7.40;91.00
70366;DHT22;57787;48.216;12.396;2022-11-18T17:49:29;7.40;91.00
70366;DHT22;57787;48.216;12.396;2022-11-18T17:51:55;7.40;91.00
70366;DHT22;57787;48.216;12.396;2022-11-18T17:54:22;7.40;91.00
70366;DHT22;57787;48.216;12.396;2022-11-18T17:56:50;7.40;90.90
70366;DHT22;57787;48.216;12.396;2022-11-18T17:59:21;7.40;90.80
70366;DHT22;57787;48.216;12.396;2022-11-18T18:01:56;7.40;90.80
70366;DHT22;57787;48.216;12.396;2022-11-18T18:04:25;7.40;90.90
70366;DHT22;57787;48.216;12.396;2022-11-18T18:06:52;7.40;90.90
70366;DHT22;57787;48.216;12.396;2022-11-18T18:09:20;7.40;90.90
70366;DHT22;57787;48.216;12.396;2022-11-18T18:11:57;7.40;90.90
70366;DHT22;57787;48.216;12.396;2022-11-18T18:14:25;7.40;90.90